Latest Coastal Weather Observations for Townsville

IDQ60701

Issued at 10:42 pm EST Tuesday 19 February 2019 (issued every 10 minutes, with the page automatically refreshed every 10 minutes)

About coastal observations | Map of coastal stations | Coastal observations for QLD | Marine services | Other Formats
Station Details ID: 032040 Name: TOWNSVILLE AERO Lat: -19.25 Lon: 146.77 Height: 4.34 m
Data from the previous 72 hours. | See also: Recent months at Townsville
Date/Time
EST
Wind Sea
Height
m
Swell Vis
km
Cloud Weather Temp
°C
Press
hPa
Rain since
9am
mm
Dir  Spd
kts
Gust
kts
Height
m
Period
s
Dir
19/10:30pm N 7 10 - - - - 10 Partly cloudy - 28.9 1007.3 0.0
19/10:00pm N 7 10 - - - - 10 Mostly clear - 28.8 1006.9 0.0
19/09:30pm NNW 6 9 - - - - 10 Mostly clear - 29.1 1006.7 0.0
19/09:00pm NNE 8 11 - - - - 10 Mostly clear - 29.2 1006.7 0.0
19/08:30pm ENE 15 19 - - - - 10 Mostly clear - 29.6 1006.9 0.0
19/08:00pm NE 2 7 - - - - 10 Mostly clear - 29.9 1006.5 0.0
19/07:30pm NE 9 10 - - - - 10 Mostly clear - 29.8 1005.3 0.0
19/07:00pm E 8 10 - - - - 10 Mostly clear - 30.2 1005.1 0.0
19/06:30pm NNE 5 6 - - - - 10 Mostly clear - 30.8 1003.8 0.0
19/06:00pm NE 6 7 - - - - 10 Mostly clear - 31.7 1003.6 0.0
19/05:30pm NNE 5 9 - - - - 10 Mostly clear - 33.2 1003.7 0.0
19/05:00pm NNE 6 8 - - - - 10 Mostly clear - 33.6 1003.4 0.0
19/04:30pm NE 7 9 - - - - 10 Mostly clear - 33.9 1003.2 0.0
19/04:00pm NE 8 9 - - - - 10 Mostly clear - 33.5 1003.0 0.0
19/03:30pm NNE 6 8 - - - - 10 Mostly clear - 33.8 1003.3 0.0
19/03:00pm N 6 9 - - - - 10 Mostly clear - 33.4 1003.7 0.0
19/02:30pm N 5 8 - - - - 10 Mostly clear - 33.5 1004.2 0.0
19/02:00pm NW 7 12 - - - - 10 Mostly clear - 33.2 1004.7 0.0
19/01:30pm N 8 12 - - - - 10 Mostly clear - 33.2 1005.2 0.0
19/01:00pm N 6 9 - - - - 10 Mostly clear - 33.3 1005.5 0.0
19/12:30pm N 9 13 - - - - 10 Mostly clear - 32.4 1006.1 0.0
19/12:00pm N 9 13 - - - - 10 Mostly clear - 33.0 1006.6 0.0
19/11:30am WNW 5 7 - - - - 10 Mostly clear - 32.2 1007.1 0.0
19/11:00am NNW 5 7 - - - - 10 Mostly clear - 31.9 1007.5 0.0
19/10:30am NNW 7 10 - - - - 10 Mostly clear - 31.7 1008.1 0.0
19/10:00am NNW 7 9 - - - - 10 Mostly clear - 31.2 1008.5 0.0
19/09:30am NNW 7 10 - - - - 10 Mostly clear - 30.8 1008.6 0.0
19/09:00am NW 7 9 - - - - 10 Mostly clear - 30.4 1008.9 0.0
19/08:30am NW 6 8 - - - - 10 Mostly clear - 30.1 1009.0 0.0
19/08:00am NW 5 7 - - - - 10 Mostly clear - 29.4 1009.0 0.0
19/07:30am WNW 4 5 - - - - 10 Mostly clear - 29.0 1008.7 0.0
19/07:00am CALM 0 0 - - - - 10 Mostly clear - 28.1 1008.2 0.0
19/06:30am CALM 0 0 - - - - 10 Mostly clear - 27.3 1008.1 0.0
19/06:00am W 1 4 - - - - 10 Mostly clear - 27.2 1007.9 0.0
19/05:30am NW 5 6 - - - - 10 Partly cloudy - 27.2 1007.5 0.0
19/05:25am NW 5 6 - - - - 10 Partly cloudy - 27.2 1007.5 0.0
19/05:00am N 5 7 - - - - 10 Partly cloudy - 28.2 1007.5 0.0
19/04:42am N 6 7 - - - - 10 Partly cloudy - 28.1 1007.4 0.0
19/04:30am N 4 6 - - - - 10 Partly cloudy - 28.1 1007.5 0.0
19/04:00am N 4 5 - - - - 10 Partly cloudy - 27.7 1007.3 0.0
19/03:30am N 5 5 - - - - 10 Cloudy - 28.0 1007.4 0.0
19/03:00am N 5 7 - - - - 10 Cloudy - 28.1 1007.5 0.0
19/02:30am N 5 7 - - - - 10 Cloudy - 28.1 1007.7 0.0
19/02:00am N 5 7 - - - - 10 Cloudy - 28.1 1007.9 0.0
19/01:30am N 4 4 - - - - 10 Partly cloudy - 28.0 1007.9 0.0
19/01:00am N 6 8 - - - - 10 Partly cloudy - 28.1 1008.0 0.0
19/12:30am N 5 6 - - - - 10 Cloudy - 28.2 1008.6 0.0
19/12:00am N 6 7 - - - - 10 Cloudy - 28.2 1008.9 0.0
 
Date/Time
EST
Wind Sea
Height
m
Swell Vis
km
Cloud Weather Temp
°C
Press
hPa
Rain since
9am
mm
Dir  Spd
kts
Gust
kts
Height
m
Period
s
Dir
18/11:30pm N 7 9 - - - - 10 Cloudy - 28.2 1008.9 0.0
18/11:00pm N 7 8 - - - - 10 Cloudy - 28.3 1009.3 0.0
18/10:30pm N 6 9 - - - - 10 Cloudy - 28.4 1009.3 0.0
18/10:00pm N 6 7 - - - - 10 Cloudy - 28.3 1009.0 0.0
18/09:30pm N 7 8 - - - - 10 Cloudy - 28.3 1009.0 0.0
18/09:00pm N 8 10 - - - - 10 Cloudy - 28.2 1008.8 0.0
18/08:30pm N 7 9 - - - - 10 Partly cloudy - 28.0 1008.7 0.0
18/08:00pm N 6 8 - - - - 10 Partly cloudy - 27.7 1008.2 0.0
18/07:30pm N 7 9 - - - - 10 - - 27.7 1007.8 0.0
18/07:00pm N 6 9 - - - - 10 - - 28.0 1007.5 0.0
18/06:30pm N 6 9 - - - - 10 - - 28.5 1007.1 0.0
18/06:00pm N 7 10 - - - - 10 - - 29.4 1006.8 0.0
18/05:30pm N 7 9 - - - - 10 Mostly clear - 30.2 1006.7 0.0
18/05:00pm N 7 10 - - - - 10 Mostly clear - 31.0 1006.7 0.0
18/04:30pm N 8 11 - - - - 10 Mostly clear - 30.9 1006.4 0.0
18/04:00pm N 9 11 - - - - 10 Mostly clear - 30.5 1006.3 0.0
18/03:30pm N 8 11 - - - - 10 Mostly clear - 30.7 1006.6 0.0
18/03:00pm N 8 10 - - - - 10 Mostly clear - 30.8 1007.1 0.0
18/02:30pm N 7 10 - - - - 10 Mostly clear - 30.9 1007.6 0.0
18/02:00pm N 7 10 - - - - 10 Mostly clear - 30.8 1008.0 0.0
18/01:30pm N 7 9 - - - - 10 Mostly clear - 30.8 1008.5 0.0
18/01:00pm N 9 14 - - - - 10 Mostly clear - 30.9 1009.0 0.0
18/12:30pm N 8 15 - - - - 10 Mostly clear - 30.8 1009.3 0.0
18/12:00pm NNW 5 10 - - - - 10 Partly cloudy - 30.9 1009.7 0.0
18/11:30am NNW 7 11 - - - - 10 Partly cloudy - 31.1 1010.0 0.0
18/11:00am NNE 8 12 - - - - 10 Mostly clear - 30.6 1010.4 0.0
18/10:30am N 7 12 - - - - 10 Partly cloudy - 30.3 1010.7 0.0
18/10:00am NE 7 11 - - - - 10 Partly cloudy - 30.4 1010.8 0.0
18/09:30am NE 6 8 - - - - 10 Partly cloudy - 29.7 1010.9 0.0
18/09:00am NE 6 7 - - - - 10 Mostly cloudy - 29.9 1010.9 0.2
18/08:30am NE 5 7 - - - - 10 Mostly clear - 29.4 1010.8 0.2
18/08:00am E 3 5 - - - - 10 Mostly clear - 29.1 1010.6 0.2
18/07:30am CALM 0 0 - - - - 10 Mostly clear - 28.5 1010.3 0.2
18/07:00am CALM 0 0 - - - - 10 Mostly clear - 26.9 1009.9 0.2
18/06:30am CALM 0 0 - - - - 10 Mostly clear - 25.5 1009.6 0.2
18/06:00am CALM 0 0 - - - - 10 Mostly clear - 25.4 1009.3 0.2
18/05:30am CALM 0 0 - - - - 10 - - 25.6 1009.2 0.2
18/05:00am N 5 6 - - - - 10 Partly cloudy - 25.9 1008.9 0.2
18/04:30am N 2 4 - - - - 10 Cloudy - 26.2 1008.9 0.2
18/04:00am N 3 5 - - - - 10 Cloudy - 26.1 1008.9 0.2
18/03:30am N 3 4 - - - - 10 Cloudy - 26.4 1008.9 0.2
18/03:00am NNE 5 6 - - - - 10 Cloudy - 26.1 1008.9 0.2
18/02:30am NE 5 7 - - - - 10 Partly cloudy - 26.4 1009.1 0.2
18/02:00am NE 7 8 - - - - 10 Partly cloudy - 27.1 1009.2 0.2
18/01:30am NNE 6 7 - - - - 10 Partly cloudy - 26.9 1009.3 0.2
18/01:00am NNE 7 8 - - - - 10 Partly cloudy - 26.9 1009.5 0.2
18/12:30am N 6 7 - - - - 10 Partly cloudy - 26.9 1009.8 0.2
18/12:00am N 5 7 - - - - 10 Cloudy - 26.6 1010.0 0.2
 
Date/Time
EST
Wind Sea
Height
m
Swell Vis
km
Cloud Weather Temp
°C
Press
hPa
Rain since
9am
mm
Dir  Spd
kts
Gust
kts
Height
m
Period
s
Dir
17/11:30pm NE 8 10 - - - - 10 Partly cloudy - 26.7 1010.3 0.2
17/11:00pm NE 7 8 - - - - 10 Partly cloudy - 26.8 1010.4 0.2
17/10:30pm NNE 6 7 - - - - 10 Partly cloudy - 26.1 1010.3 0.2
17/10:00pm NNE 4 5 - - - - 10 Partly cloudy - 26.2 1010.1 0.2
17/09:30pm NNE 5 7 - - - - 10 Partly cloudy - 27.0 1010.1 0.2
17/09:00pm NNE 4 6 - - - - 10 - - 26.4 1009.7 0.2
17/08:30pm CALM 0 0 - - - - 10 - - 26.5 1009.4 0.2
17/08:00pm CALM 0 0 - - - - 10 - - 26.9 1009.1 0.2
17/07:30pm N 2 5 - - - - 10 - - 27.2 1008.7 0.2
17/07:00pm NNW 5 6 - - - - 10 - - 27.3 1008.3 0.2
17/06:30pm NNW 5 7 - - - - 10 - - 27.7 1008.0 0.2
17/06:00pm N 5 6 - - - - 10 Mostly clear - 28.1 1007.7 0.2
17/05:30pm N 5 7 - - - - 10 - - 28.6 1007.3 0.2
17/05:00pm N 8 11 - - - - 10 Partly cloudy - 29.1 1007.4 0.2
17/04:30pm NE 7 9 - - - - 10 Partly cloudy - 30.1 1007.6 0.2
17/04:00pm ENE 9 13 - - - - 10 Partly cloudy - 29.9 1007.9 0.2
17/03:30pm NE 9 12 - - - - 10 Partly cloudy - 30.8 1008.0 0.2
17/03:00pm ENE 10 13 - - - - 10 Partly cloudy - 29.6 1008.6 0.0
17/02:30pm ENE 13 16 - - - - 10 - - 30.6 1008.9 0.0
17/02:00pm NE 12 15 - - - - 10 Partly cloudy - 30.6 1009.3 0.0
17/01:30pm NE 11 14 - - - - 10 Partly cloudy - 30.2 1009.9 0.0
17/01:00pm NE 11 15 - - - - 10 Partly cloudy - 29.6 1010.4 0.0
17/12:30pm NE 9 14 - - - - 10 Partly cloudy - 30.4 1010.9 0.0
17/12:00pm NE 8 12 - - - - 10 Partly cloudy - 29.7 1011.3 0.0
17/11:30am NE 9 13 - - - - 10 Partly cloudy - 30.3 1011.7 0.0
17/11:00am NE 10 14 - - - - 10 Partly cloudy - 30.0 1012.1 0.0
17/10:30am ENE 10 15 - - - - 10 Partly cloudy - 30.6 1012.2 0.0
17/10:00am E 10 14 - - - - 10 Partly cloudy - 30.5 1012.4 0.0
17/09:30am ESE 8 10 - - - - 10 Partly cloudy - 28.9 1012.7 0.0
17/09:00am ESE 8 11 - - - - 10 Cloudy - 28.9 1012.7 0.0
17/08:30am ESE 7 10 - - - - 10 Cloudy - 28.4 1012.5 0.0
17/08:00am ESE 8 10 - - - - 10 Partly cloudy - 27.9 1012.3 0.0
17/07:30am SE 7 8 - - - - 10 Partly cloudy - 27.6 1012.2 0.0
17/07:00am SSE 5 6 - - - - 10 Partly cloudy - 27.1 1011.8 0.0
17/06:30am SE 5 6 - - - - 10 Partly cloudy - 26.0 1011.5 0.0
17/06:00am SE 5 6 - - - - 10 Cloudy - 25.7 1011.1 0.0
17/05:30am ESE 4 5 - - - - 10 Partly cloudy - 25.6 1010.7 0.0
17/05:00am ENE 3 5 - - - - 10 Partly cloudy - 25.8 1010.6 0.0
17/04:30am ENE 5 6 - - - - 10 Partly cloudy - 26.1 1010.5 0.0
17/04:00am E 10 14 - - - - 10 Partly cloudy - 26.2 1010.3 0.0
17/03:30am SE 7 9 - - - - 10 Partly cloudy - 26.6 1010.2 0.0
17/03:00am ESE 6 8 - - - - 10 Cloudy - 27.1 1010.2 0.0
17/02:30am ENE 8 10 - - - - 10 Partly cloudy - 27.1 1010.5 0.0
17/02:00am E 9 11 - - - - 10 Partly cloudy - 27.2 1010.5 0.0
17/01:30am ENE 9 11 - - - - 10 Partly cloudy - 27.2 1010.9 0.0
17/01:00am ENE 9 11 - - - - 10 Partly cloudy - 27.4 1011.3 0.0
17/12:30am E 7 10 - - - - 10 Partly cloudy - 27.3 1011.6 0.0
17/12:00am E 7 10 - - - - 10 Cloudy Rain 27.6 1011.9 0.0
 
Date/Time
EST
Wind Sea
Height
m
Swell Vis
km
Cloud Weather Temp
°C
Press
hPa
Rain since
9am
mm
Dir  Spd
kts
Gust
kts
Height
m
Period
s
Dir
16/11:30pm ENE 11 15 - - - - 10 Partly cloudy - 27.7 1012.0 0.0
16/11:00pm ENE 11 15 - - - - 10 Partly cloudy - 27.8 1012.1 0.0

Other formats

Comma delimited format used in spreadsheet applications
http://www.bom.gov.au/fwo/IDQ60701/IDQ60701.94294.axf

JavaScript Object Notation format (JSON) in row-major order
http://www.bom.gov.au/fwo/IDQ60701/IDQ60701.94294.json

Data quality

Most of these data are generated automatically and are frequently updated. Quality checks on data are not normally performed. It is possible for incorrect values to appear. Refer to information at About Latest Weather Observations and please check the disclaimer before using these data.